Weather at Darwin International Airport

Public forecast

Using degrees Celsius for public forecast. Weather courtesy of forecast.io.

Current aviation weather report (METAR) for Darwin International Airport

Retrieved 2022/08/19 14:30 UTC (19 minutes ago):

YPDN 191430Z 00000KT CAVOK 21/18 Q1015

Aviation forecast (TAF) for Darwin International Airport

Retrieved 2022/08/19 15:37 UTC (0 seconds ago):

TAF YPDN 191412Z 1915/2018 VRB03KT CAVOK FM191800 12007KT CAVOK FM200100 10014KT CAVOK FM200600 02012KT CAVOK FM201000 06006KT CAVOK